createdAt,value
2022-08-01T00:01:39.611Z,81.14
2022-08-01T00:04:09.770Z,80.88
2022-08-01T00:06:39.644Z,80.76
2022-08-01T00:09:09.809Z,81.24
2022-08-01T00:11:39.626Z,81.19
2022-08-01T00:14:09.633Z,81.05
2022-08-01T00:16:39.640Z,81.02
2022-08-01T00:19:09.527Z,81.13
2022-08-01T00:21:39.610Z,81.66
2022-08-01T00:24:09.811Z,81.27
2022-08-01T00:26:39.556Z,81.23
2022-08-01T00:29:11.642Z,81.29
2022-08-01T00:31:39.813Z,81.16
2022-08-01T00:34:09.559Z,81.20
2022-08-01T00:39:09.653Z,81.21
2022-08-01T00:41:39.836Z,81.24
2022-08-01T00:44:09.796Z,81.19
2022-08-01T00:49:10.529Z,81.17
2022-08-01T00:54:09.832Z,81.08
2022-08-01T00:56:39.635Z,81.04
2022-08-01T00:59:11.640Z,81.06
2022-08-01T01:01:40.190Z,81.14
2022-08-01T01:06:48.678Z,81.00
2022-08-01T01:09:21.074Z,81.07
2022-08-01T01:14:16.764Z,81.07
2022-08-01T01:16:42.463Z,80.93
2022-08-01T01:19:16.252Z,80.86
2022-08-01T01:26:48.089Z,80.74
2022-08-01T01:29:15.768Z,81.03
2022-08-01T01:31:44.160Z,81.35
2022-08-01T01:34:12.796Z,80.93
2022-08-01T01:36:40.872Z,80.96
2022-08-01T01:39:11.041Z,81.12
2022-08-01T01:46:41.860Z,81.02
2022-08-01T01:49:11.637Z,81.09
2022-08-01T01:51:42.491Z,81.02
2022-08-01T01:56:48.704Z,81.13
2022-08-01T01:59:09.734Z,81.05
2022-08-01T02:02:05.394Z,81.00
2022-08-01T02:06:40.600Z,80.97
2022-08-01T02:09:10.292Z,81.09
2022-08-01T02:11:59.214Z,81.08
2022-08-01T02:14:11.839Z,81.15
2022-08-01T02:21:44.787Z,81.00
2022-08-01T02:24:16.880Z,81.01
2022-08-01T02:26:44.401Z,80.84
2022-08-01T02:29:15.036Z,81.23
2022-08-01T02:31:44.943Z,81.21
2022-08-01T02:34:13.174Z,81.16
2022-08-01T02:39:13.277Z,81.00
2022-08-01T02:41:42.671Z,81.01
2022-08-01T02:44:14.975Z,80.95
2022-08-01T02:46:44.613Z,80.97
2022-08-01T02:49:11.888Z,81.04
2022-08-01T02:51:41.222Z,80.98
2022-08-01T02:54:11.366Z,80.91
2022-08-01T02:59:14.612Z,80.87
2022-08-01T03:06:41.364Z,80.68
2022-08-01T03:09:10.790Z,80.72
2022-08-01T03:14:12.861Z,80.66
2022-08-01T03:16:42.467Z,80.53
2022-08-01T03:19:11.556Z,80.57
2022-08-01T03:21:41.072Z,80.54
2022-08-01T03:24:11.536Z,80.53
2022-08-01T03:26:41.785Z,80.50
2022-08-01T03:29:14.638Z,80.50
2022-08-01T03:31:43.616Z,80.46
2022-08-01T03:39:13.064Z,80.37
2022-08-01T03:41:43.634Z,80.32
2022-08-01T03:44:15.283Z,80.63
2022-08-01T03:46:43.726Z,80.40
2022-08-01T03:49:13.524Z,80.43
2022-08-01T03:51:40.644Z,80.20
2022-08-01T03:54:10.982Z,80.04
2022-08-01T03:56:41.895Z,79.87
2022-08-01T03:59:10.502Z,79.92
2022-08-01T04:01:40.090Z,79.73
2022-08-01T04:04:09.975Z,79.54
2022-08-01T04:06:40.480Z,79.51
2022-08-01T04:09:13.602Z,79.46
2022-08-01T04:14:09.675Z,79.21
2022-08-01T04:16:39.800Z,79.09
2022-08-01T04:19:09.874Z,79.13
2022-08-01T04:21:40.198Z,79.04
2022-08-01T04:26:40.954Z,78.83
2022-08-01T04:29:11.803Z,78.86
2022-08-01T04:31:44.318Z,78.85
2022-08-01T04:34:14.177Z,78.73
2022-08-01T04:36:41.996Z,78.59
2022-08-01T04:39:10.945Z,78.65
2022-08-01T04:41:40.690Z,78.66
2022-08-01T04:44:09.745Z,78.61
2022-08-01T04:46:40.618Z,78.51
2022-08-01T04:49:11.778Z,78.49
2022-08-01T04:56:40.117Z,78.25
2022-08-01T04:59:20.346Z,78.15
2022-08-01T05:01:39.747Z,78.11
2022-08-01T05:06:39.907Z,77.98
2022-08-01T05:09:09.988Z,78.05
2022-08-01T05:11:39.720Z,78.00
2022-08-01T05:14:09.735Z,78.16
2022-08-01T05:16:39.712Z,77.92
2022-08-01T05:19:09.864Z,77.89
2022-08-01T05:21:39.812Z,77.76
2022-08-01T05:26:40.139Z,77.56
2022-08-01T05:29:09.709Z,77.57
2022-08-01T05:31:39.727Z,77.43
2022-08-01T05:39:10.016Z,77.54
2022-08-01T05:41:40.543Z,77.32
2022-08-01T05:44:09.953Z,77.29
2022-08-01T05:46:39.959Z,77.23
2022-08-01T05:51:40.144Z,77.17
2022-08-01T05:54:09.693Z,77.12
2022-08-01T05:56:39.991Z,77.08
2022-08-01T05:59:09.821Z,77.13
2022-08-01T06:01:39.947Z,77.02
2022-08-01T06:04:09.993Z,76.93
2022-08-01T06:06:39.694Z,76.72
2022-08-01T06:09:09.844Z,76.68
2022-08-01T06:11:39.849Z,76.32
2022-08-01T06:14:10.098Z,75.96
2022-08-01T06:16:39.904Z,75.72
2022-08-01T06:19:09.732Z,75.58
2022-08-01T06:21:39.780Z,75.22
2022-08-01T06:24:09.760Z,74.86
2022-08-01T06:26:39.848Z,74.75
2022-08-01T06:29:10.205Z,74.72
2022-08-01T06:31:39.778Z,74.35
2022-08-01T06:34:09.883Z,74.32
2022-08-01T06:36:39.777Z,74.19
2022-08-01T06:39:09.927Z,74.12
2022-08-01T06:41:41.481Z,73.84
2022-08-01T06:44:09.737Z,75.33
2022-08-01T06:46:39.775Z,77.59
2022-08-01T06:49:09.986Z,79.63
2022-08-01T06:51:40.309Z,78.90
2022-08-01T06:54:09.791Z,77.44
2022-08-01T06:56:39.801Z,76.11
2022-08-01T06:59:10.009Z,73.89
2022-08-01T07:01:39.839Z,69.82
2022-08-01T07:04:09.776Z,68.78
2022-08-01T07:06:39.895Z,65.87
2022-08-01T07:09:14.211Z,64.39
2022-08-01T07:11:39.753Z,62.55
2022-08-01T07:14:09.789Z,60.74
2022-08-01T07:16:39.853Z,58.95
2022-08-01T07:19:09.836Z,56.72
2022-08-01T07:21:41.339Z,54.90
2022-08-01T07:24:15.151Z,53.52
2022-08-01T07:26:41.165Z,51.92
2022-08-01T07:29:09.754Z,49.73
2022-08-01T07:31:39.909Z,49.19
2022-08-01T07:34:09.943Z,47.45
2022-08-01T07:36:39.775Z,46.35
2022-08-01T07:39:09.917Z,45.85
2022-08-01T07:41:52.807Z,44.73
2022-08-01T07:44:09.809Z,43.02
2022-08-01T07:46:39.890Z,45.12
2022-08-01T07:49:10.018Z,43.31
2022-08-01T07:51:40.026Z,42.43
2022-08-01T07:54:09.758Z,41.84
2022-08-01T07:56:39.963Z,40.68
2022-08-01T07:59:09.998Z,41.09
2022-08-01T08:01:39.954Z,39.28
2022-08-01T08:04:09.767Z,35.88
2022-08-01T08:06:41.284Z,36.41
2022-08-01T08:09:09.808Z,37.18
2022-08-01T08:11:44.565Z,37.19
2022-08-01T08:14:10.065Z,37.17
2022-08-01T08:16:39.787Z,35.86
2022-08-01T08:19:10.268Z,37.34
2022-08-01T08:21:40.245Z,35.93
2022-08-01T08:24:20.417Z,35.24
2022-08-01T08:26:39.767Z,36.81
2022-08-01T08:29:09.817Z,35.92
2022-08-01T08:31:51.719Z,35.27
2022-08-01T08:34:10.283Z,34.98
2022-08-01T08:36:40.114Z,34.69
2022-08-01T08:39:09.824Z,34.19
2022-08-01T08:41:40.127Z,33.61
2022-08-01T08:44:10.839Z,35.21
2022-08-01T08:46:42.479Z,34.52
2022-08-01T08:49:11.387Z,34.50
2022-08-01T08:51:42.460Z,34.42
2022-08-01T08:54:12.659Z,36.07
2022-08-01T08:56:41.897Z,35.77
2022-08-01T08:59:13.209Z,34.61
2022-08-01T09:01:40.452Z,34.73
2022-08-01T09:04:11.201Z,34.88
2022-08-01T09:06:40.455Z,34.76
2022-08-01T09:09:10.732Z,35.61
2022-08-01T09:11:39.965Z,35.85
2022-08-01T09:14:11.886Z,35.89
2022-08-01T09:16:47.952Z,36.77
2022-08-01T09:19:16.132Z,35.71
2022-08-01T09:21:51.958Z,35.22
2022-08-01T09:24:15.252Z,31.27
2022-08-01T09:26:40.750Z,35.55
2022-08-01T09:29:38.060Z,36.54
2022-08-01T09:31:42.368Z,35.28
2022-08-01T09:34:10.721Z,31.78
2022-08-01T09:36:51.425Z,36.01
2022-08-01T09:39:13.681Z,35.85
2022-08-01T09:41:40.529Z,36.49
2022-08-01T09:44:10.275Z,36.63
2022-08-01T09:46:50.980Z,36.28
2022-08-01T09:49:10.916Z,34.87
2022-08-01T09:51:59.767Z,35.10
2022-08-01T09:54:09.900Z,32.39
2022-08-01T09:56:42.489Z,34.24
2022-08-01T09:59:10.073Z,34.57
2022-08-01T10:01:45.737Z,35.06
2022-08-01T10:04:11.749Z,34.66
2022-08-01T10:06:42.814Z,34.76
2022-08-01T10:09:11.899Z,34.83
2022-08-01T10:11:42.188Z,34.48
2022-08-01T10:14:12.190Z,34.56
2022-08-01T10:16:40.395Z,34.28
2022-08-01T10:19:11.339Z,33.79
2022-08-01T10:21:58.593Z,33.85
2022-08-01T10:24:11.298Z,34.35
2022-08-01T10:26:40.637Z,34.73
2022-08-01T10:29:46.838Z,34.58
2022-08-01T10:31:39.974Z,34.80
2022-08-01T10:34:11.285Z,34.44
2022-08-01T10:36:40.873Z,33.16
2022-08-01T10:39:10.960Z,33.20
2022-08-01T10:41:41.575Z,33.48
2022-08-01T10:44:09.975Z,33.79
2022-08-01T10:46:46.758Z,32.51
2022-08-01T10:49:13.399Z,32.95
2022-08-01T10:51:51.346Z,32.97
2022-08-01T10:54:11.983Z,32.76
2022-08-01T10:56:43.943Z,32.65
2022-08-01T10:59:11.918Z,32.29
2022-08-01T11:01:44.749Z,32.34
2022-08-01T11:04:16.649Z,32.27
2022-08-01T11:06:46.399Z,32.44
2022-08-01T11:09:24.552Z,31.87
2022-08-01T11:11:57.517Z,31.75
2022-08-01T11:14:11.886Z,31.68
2022-08-01T11:16:40.759Z,31.67
2022-08-01T11:19:10.666Z,31.78
2022-08-01T11:22:03.803Z,32.32
2022-08-01T11:24:09.938Z,32.10
2022-08-01T11:26:59.658Z,32.20
2022-08-01T11:29:19.926Z,31.97
2022-08-01T11:31:40.865Z,32.14
2022-08-01T11:34:10.244Z,31.60
2022-08-01T11:36:58.601Z,31.75
2022-08-01T11:39:16.738Z,31.56
2022-08-01T11:41:41.212Z,31.31
2022-08-01T11:44:13.410Z,30.99
2022-08-01T11:46:52.945Z,30.43
2022-08-01T11:49:29.655Z,29.58
2022-08-01T11:51:39.970Z,29.43
2022-08-01T11:54:10.053Z,29.61
2022-08-01T11:56:42.958Z,29.45
2022-08-01T11:59:15.177Z,29.24
2022-08-01T12:01:41.324Z,28.75
2022-08-01T12:04:09.931Z,28.55
2022-08-01T12:06:40.675Z,28.52
2022-08-01T12:09:19.426Z,28.69
2022-08-01T12:11:40.067Z,28.64
2022-08-01T12:14:15.164Z,28.26
2022-08-01T12:16:39.945Z,27.84
2022-08-01T12:19:11.589Z,28.15
2022-08-01T12:21:40.185Z,28.31
2022-08-01T12:24:09.910Z,28.11
2022-08-01T12:26:40.846Z,28.29
2022-08-01T12:29:10.061Z,28.25
2022-08-01T12:31:40.012Z,28.49
2022-08-01T12:34:28.037Z,28.66
2022-08-01T12:36:39.951Z,29.01
2022-08-01T12:39:09.981Z,28.29
2022-08-01T12:41:43.172Z,28.92
2022-08-01T12:44:14.050Z,29.22
2022-08-01T12:46:44.368Z,28.88
2022-08-01T12:49:10.506Z,29.10
2022-08-01T12:51:40.283Z,29.35
2022-08-01T12:54:10.179Z,29.40
2022-08-01T12:56:40.096Z,29.68
2022-08-01T12:59:20.436Z,29.65
2022-08-01T13:01:42.091Z,29.90
2022-08-01T13:04:09.924Z,30.05
2022-08-01T13:06:40.004Z,30.29
2022-08-01T13:09:11.510Z,30.05
2022-08-01T13:11:54.019Z,30.06
2022-08-01T13:14:10.120Z,30.88
2022-08-01T13:16:56.939Z,31.38
2022-08-01T13:19:09.966Z,31.91
2022-08-01T13:21:55.064Z,31.92
2022-08-01T13:24:12.183Z,32.07
2022-08-01T13:26:42.200Z,31.86
2022-08-01T13:29:11.738Z,31.74
2022-08-01T13:31:41.119Z,32.10
2022-08-01T13:34:11.641Z,32.18
2022-08-01T13:36:46.867Z,32.31
2022-08-01T13:39:19.991Z,32.03
2022-08-01T13:41:40.087Z,32.07
2022-08-01T13:44:10.648Z,32.48
2022-08-01T13:46:49.517Z,32.46
2022-08-01T13:49:16.343Z,32.63
2022-08-01T13:51:40.479Z,32.81
2022-08-01T13:54:10.205Z,32.95
2022-08-01T13:56:40.085Z,32.95
2022-08-01T13:59:10.327Z,33.46
2022-08-01T14:01:40.263Z,33.48
2022-08-01T14:04:10.189Z,33.50
2022-08-01T14:06:40.006Z,33.99
2022-08-01T14:09:17.521Z,34.33
2022-08-01T14:11:40.192Z,34.58
2022-08-01T14:14:09.947Z,34.68
2022-08-01T14:16:40.244Z,33.93
2022-08-01T14:19:09.964Z,33.90
2022-08-01T14:21:40.072Z,34.00
2022-08-01T14:24:10.228Z,34.34
2022-08-01T14:26:39.966Z,34.65
2022-08-01T14:29:10.240Z,34.57
2022-08-01T14:31:40.494Z,34.70
2022-08-01T14:34:10.057Z,34.92
2022-08-01T14:36:40.163Z,34.59
2022-08-01T14:39:15.101Z,34.44
2022-08-01T14:41:40.370Z,34.45
2022-08-01T14:44:10.114Z,34.71
2022-08-01T14:46:57.092Z,34.89
2022-08-01T14:49:10.530Z,34.38
2022-08-01T14:51:39.992Z,34.48
2022-08-01T14:54:10.073Z,34.59
2022-08-01T14:56:40.035Z,34.98
2022-08-01T14:59:21.050Z,35.32
2022-08-01T15:01:40.304Z,35.60
2022-08-01T15:04:10.076Z,35.69
2022-08-01T15:06:40.282Z,35.57
2022-08-01T15:09:10.465Z,35.69
2022-08-01T15:11:40.111Z,36.04
2022-08-01T15:14:19.971Z,36.15
2022-08-01T15:16:40.132Z,36.38
2022-08-01T15:19:10.072Z,36.45
2022-08-01T15:21:42.011Z,35.88
2022-08-01T15:24:10.058Z,36.03
2022-08-01T15:26:40.132Z,35.98
2022-08-01T15:29:10.036Z,36.23
2022-08-01T15:31:40.217Z,36.08
2022-08-01T15:34:10.051Z,36.37
2022-08-01T15:36:42.074Z,36.76
2022-08-01T15:39:10.266Z,36.90
2022-08-01T15:41:40.025Z,36.91
2022-08-01T15:44:10.369Z,36.82
2022-08-01T15:46:40.260Z,37.07
2022-08-01T15:49:10.725Z,37.24
2022-08-01T15:51:40.830Z,37.17
2022-08-01T15:54:14.591Z,37.12
2022-08-01T15:56:40.119Z,37.14
2022-08-01T15:59:10.897Z,37.33
2022-08-01T16:01:40.622Z,37.12
2022-08-01T16:04:10.210Z,37.17
2022-08-01T16:06:40.137Z,37.15
2022-08-01T16:09:10.215Z,37.18
2022-08-01T16:11:43.078Z,37.38
2022-08-01T16:14:10.178Z,37.40
2022-08-01T16:16:40.846Z,37.48
2022-08-01T16:19:10.113Z,37.65
2022-08-01T16:21:42.054Z,37.70
2022-08-01T16:24:10.109Z,37.75
2022-08-01T16:26:40.191Z,37.71
2022-08-01T16:29:10.517Z,37.81
2022-08-01T16:31:48.039Z,37.59
2022-08-01T16:34:10.259Z,37.59
2022-08-01T16:36:40.102Z,37.51
2022-08-01T16:39:10.416Z,37.54
2022-08-01T16:41:41.564Z,37.74
2022-08-01T16:44:10.126Z,37.84
2022-08-01T16:46:40.234Z,37.91
2022-08-01T16:49:10.194Z,38.11
2022-08-01T16:51:48.254Z,38.16
2022-08-01T16:54:25.689Z,38.18
2022-08-01T16:56:40.178Z,38.33
2022-08-01T16:59:10.170Z,38.44
2022-08-01T17:01:58.863Z,38.38
2022-08-01T17:04:10.235Z,38.49
2022-08-01T17:06:40.202Z,38.55
2022-08-01T17:09:10.147Z,38.76
2022-08-01T17:11:40.280Z,38.75
2022-08-01T17:14:10.103Z,38.83
2022-08-01T17:16:40.260Z,38.88
2022-08-01T17:19:10.200Z,38.95
2022-08-01T17:21:41.533Z,39.14
2022-08-01T17:24:10.241Z,39.28
2022-08-01T17:26:40.089Z,39.13
2022-08-01T17:29:10.199Z,38.89
2022-08-01T17:31:40.165Z,38.90
2022-08-01T17:34:10.085Z,39.13
2022-08-01T17:36:40.598Z,39.16
2022-08-01T17:39:11.534Z,39.30
2022-08-01T17:41:40.782Z,39.33
2022-08-01T17:44:10.472Z,39.38
2022-08-01T17:46:40.152Z,39.57
2022-08-01T17:49:10.336Z,39.56
2022-08-01T17:51:40.323Z,39.74
2022-08-01T17:56:44.268Z,40.10
2022-08-01T17:59:10.086Z,40.24
2022-08-01T18:01:45.253Z,40.25
2022-08-01T18:04:10.524Z,40.34
2022-08-01T18:06:40.293Z,40.50
2022-08-01T18:09:11.252Z,40.69
2022-08-01T18:11:40.090Z,40.77
2022-08-01T18:14:10.413Z,40.92
2022-08-01T18:16:40.295Z,41.13
2022-08-01T18:19:10.209Z,41.37
2022-08-01T18:21:42.974Z,41.41
2022-08-01T18:24:10.109Z,41.40
2022-08-01T18:26:40.464Z,41.53
2022-08-01T18:29:10.540Z,41.69
2022-08-01T18:31:40.204Z,41.88
2022-08-01T18:34:10.397Z,42.01
2022-08-01T18:36:40.485Z,42.15
2022-08-01T18:39:10.810Z,42.38
2022-08-01T18:41:40.243Z,42.29
2022-08-01T18:44:10.212Z,42.28
2022-08-01T18:46:41.090Z,42.36
2022-08-01T18:49:11.856Z,42.57
2022-08-01T18:51:44.235Z,42.89
2022-08-01T18:54:10.461Z,43.14
2022-08-01T18:56:41.176Z,43.36
2022-08-01T18:59:10.526Z,43.51
2022-08-01T19:01:40.567Z,43.56
2022-08-01T19:04:10.280Z,43.71
2022-08-01T19:06:40.601Z,43.88
2022-08-01T19:09:10.102Z,43.88
2022-08-01T19:11:40.671Z,43.79
2022-08-01T19:14:10.134Z,44.04
2022-08-01T19:16:40.188Z,44.15
2022-08-01T19:19:10.527Z,44.43
2022-08-01T19:21:44.668Z,44.70
2022-08-01T19:24:17.602Z,44.99
2022-08-01T19:26:45.781Z,45.04
2022-08-01T19:29:16.493Z,45.26
2022-08-01T19:31:48.546Z,45.44
2022-08-01T19:34:11.758Z,45.70
2022-08-01T19:36:42.545Z,45.86
2022-08-01T19:39:10.716Z,45.97
2022-08-01T19:41:40.652Z,46.01
2022-08-01T19:44:12.123Z,45.96
2022-08-01T19:46:41.091Z,45.95
2022-08-01T19:49:12.513Z,45.95
2022-08-01T19:51:46.149Z,46.17
2022-08-01T19:54:11.390Z,46.25
2022-08-01T19:56:44.234Z,46.42
2022-08-01T19:59:14.889Z,46.48
2022-08-01T20:01:40.179Z,46.25
2022-08-01T20:04:10.957Z,46.28
2022-08-01T20:06:40.245Z,46.51
2022-08-01T20:09:12.019Z,46.62
2022-08-01T20:11:44.237Z,46.97
2022-08-01T20:14:12.240Z,47.28
2022-08-01T20:16:41.230Z,47.60
2022-08-01T20:19:11.543Z,47.56
2022-08-01T20:21:44.414Z,47.54
2022-08-01T20:24:14.121Z,47.57
2022-08-01T20:26:42.038Z,47.66
2022-08-01T20:29:11.387Z,47.90
2022-08-01T20:31:46.473Z,47.70
2022-08-01T20:34:13.557Z,47.91
2022-08-01T20:36:40.501Z,48.17
2022-08-01T20:39:12.768Z,48.36
2022-08-01T20:41:41.725Z,48.64
2022-08-01T20:44:10.845Z,48.81
2022-08-01T20:46:40.534Z,48.69
2022-08-01T20:49:11.083Z,48.78
2022-08-01T20:51:42.560Z,48.86
2022-08-01T20:54:10.607Z,48.97
2022-08-01T20:56:49.916Z,48.94
2022-08-01T20:59:54.705Z,49.23
2022-08-01T21:01:46.913Z,49.43
2022-08-01T21:04:27.539Z,49.00
2022-08-01T21:06:44.962Z,49.36
2022-08-01T21:09:13.076Z,49.32
2022-08-01T21:14:13.326Z,49.53
2022-08-01T21:16:45.382Z,49.68
2022-08-01T21:19:20.887Z,49.71
2022-08-01T21:21:47.407Z,50.17
2022-08-01T21:24:16.130Z,50.49
2022-08-01T21:26:42.917Z,50.58
2022-08-01T21:29:11.314Z,50.97
2022-08-01T21:31:41.455Z,50.38
2022-08-01T21:34:11.246Z,51.08
2022-08-01T21:36:43.991Z,50.70
2022-08-01T21:39:10.622Z,50.66
2022-08-01T21:42:04.953Z,50.59
2022-08-01T21:44:13.563Z,50.68
2022-08-01T21:46:40.345Z,50.96
2022-08-01T21:49:11.448Z,51.42
2022-08-01T21:51:44.588Z,51.79
2022-08-01T21:54:20.496Z,51.80
2022-08-01T21:56:48.685Z,51.86
2022-08-01T21:59:23.030Z,52.12
2022-08-01T22:01:51.379Z,51.68
2022-08-01T22:04:13.973Z,51.57
2022-08-01T22:06:43.262Z,52.08
2022-08-01T22:09:13.012Z,52.28
2022-08-01T22:14:14.029Z,52.35
2022-08-01T22:16:40.765Z,52.83
2022-08-01T22:19:10.396Z,52.54
2022-08-01T22:21:41.018Z,52.81
2022-08-01T22:24:11.387Z,52.95
2022-08-01T22:26:40.724Z,53.23
2022-08-01T22:29:11.906Z,52.92
2022-08-01T22:31:40.747Z,53.39
2022-08-01T22:34:12.604Z,53.48
2022-08-01T22:36:40.401Z,53.57
2022-08-01T22:39:14.886Z,53.79
2022-08-01T22:42:01.927Z,54.26
2022-08-01T22:46:52.144Z,54.44
2022-08-01T22:49:18.537Z,54.57
2022-08-01T22:51:54.638Z,54.73
2022-08-01T22:54:13.004Z,54.66
2022-08-01T22:56:44.113Z,54.98
2022-08-01T22:59:15.809Z,55.17
2022-08-01T23:01:48.004Z,55.14
2022-08-01T23:06:42.087Z,54.65
2022-08-01T23:09:11.195Z,54.13
2022-08-01T23:11:40.267Z,54.65
2022-08-01T23:14:10.694Z,54.57
2022-08-01T23:16:41.604Z,54.64
2022-08-01T23:19:10.826Z,54.73
2022-08-01T23:24:12.720Z,55.08
2022-08-01T23:26:41.276Z,55.06
2022-08-01T23:29:10.899Z,55.32
2022-08-01T23:32:00.232Z,55.43
2022-08-01T23:34:10.206Z,55.39
2022-08-01T23:36:40.642Z,55.63
2022-08-01T23:39:10.304Z,55.66
2022-08-01T23:41:56.145Z,55.84
2022-08-01T23:44:10.300Z,56.08
2022-08-01T23:46:40.234Z,56.05
2022-08-01T23:49:10.512Z,55.95
2022-08-01T23:51:40.282Z,55.98
2022-08-01T23:54:10.285Z,56.16
2022-08-01T23:56:40.351Z,56.22
2022-08-01T23:59:12.129Z,56.31
